sensor_id;sensor_type;location;lat;lon;timestamp;temperature;humidity
20398;DHT22;10358;49.590;11.030;2023-07-29T00:00:37;17.90;99.90
20398;DHT22;10358;49.590;11.030;2023-07-29T00:03:03;17.90;99.90
20398;DHT22;10358;49.590;11.030;2023-07-29T00:05:28;17.90;99.90
20398;DHT22;10358;49.590;11.030;2023-07-29T00:07:54;17.80;99.90
20398;DHT22;10358;49.590;11.030;2023-07-29T00:10:19;17.80;99.90
20398;DHT22;10358;49.590;11.030;2023-07-29T00:12:45;17.80;99.90
20398;DHT22;10358;49.590;11.030;2023-07-29T00:15:11;17.80;99.90
20398;DHT22;10358;49.590;11.030;2023-07-29T00:17:36;17.80;99.90
20398;DHT22;10358;49.590;11.030;2023-07-29T00:20:02;17.80;99.90
20398;DHT22;10358;49.590;11.030;2023-07-29T00:22:28;17.80;99.90
20398;DHT22;10358;49.590;11.030;2023-07-29T00:24:54;17.80;99.90
20398;DHT22;10358;49.590;11.030;2023-07-29T00:27:20;17.80;99.90
20398;DHT22;10358;49.590;11.030;2023-07-29T00:29:46;17.70;99.90
20398;DHT22;10358;49.590;11.030;2023-07-29T00:32:12;17.70;99.90
20398;DHT22;10358;49.590;11.030;2023-07-29T00:34:37;17.70;99.90
20398;DHT22;10358;49.590;11.030;2023-07-29T00:37:03;17.70;99.90
20398;DHT22;10358;49.590;11.030;2023-07-29T00:39:31;17.70;99.90
20398;DHT22;10358;49.590;11.030;2023-07-29T00:41:57;17.70;99.90
20398;DHT22;10358;49.590;11.030;2023-07-29T00:44:22;17.70;99.90
20398;DHT22;10358;49.590;11.030;2023-07-29T00:46:50;17.70;99.90
20398;DHT22;10358;49.590;11.030;2023-07-29T00:49:17;17.60;99.90
20398;DHT22;10358;49.590;11.030;2023-07-29T00:51:43;17.60;99.90
20398;DHT22;10358;49.590;11.030;2023-07-29T00:54:08;17.70;99.90
20398;DHT22;10358;49.590;11.030;2023-07-29T00:56:34;17.60;99.90
20398;DHT22;10358;49.590;11.030;2023-07-29T00:59:01;17.70;99.90
20398;DHT22;10358;49.590;11.030;2023-07-29T01:01:30;17.60;99.90
20398;DHT22;10358;49.590;11.030;2023-07-29T01:03:56;17.60;99.90
20398;DHT22;10358;49.590;11.030;2023-07-29T01:06:41;17.60;99.90
20398;DHT22;10358;49.590;11.030;2023-07-29T01:09:39;17.60;99.90
20398;DHT22;10358;49.590;11.030;2023-07-29T01:14:51;17.50;99.90
20398;DHT22;10358;49.590;11.030;2023-07-29T01:17:23;17.50;99.90
20398;DHT22;10358;49.590;11.030;2023-07-29T01:20:04;17.50;99.90
20398;DHT22;10358;49.590;11.030;2023-07-29T01:22:34;17.40;99.90
20398;DHT22;10358;49.590;11.030;2023-07-29T01:25:00;17.40;99.90
20398;DHT22;10358;49.590;11.030;2023-07-29T01:27:26;17.30;99.90
20398;DHT22;10358;49.590;11.030;2023-07-29T01:29:52;17.30;99.90
20398;DHT22;10358;49.590;11.030;2023-07-29T01:35:27;17.30;99.90
20398;DHT22;10358;49.590;11.030;2023-07-29T01:38:24;17.30;99.90
20398;DHT22;10358;49.590;11.030;2023-07-29T01:40:53;17.20;99.90
20398;DHT22;10358;49.590;11.030;2023-07-29T01:43:20;17.20;99.90
20398;DHT22;10358;49.590;11.030;2023-07-29T01:45:49;17.20;99.90
20398;DHT22;10358;49.590;11.030;2023-07-29T01:48:14;17.20;99.90
20398;DHT22;10358;49.590;11.030;2023-07-29T01:50:40;17.20;99.90
20398;DHT22;10358;49.590;11.030;2023-07-29T01:53:06;17.10;99.90
20398;DHT22;10358;49.590;11.030;2023-07-29T01:55:31;17.00;99.90
20398;DHT22;10358;49.590;11.030;2023-07-29T01:57:57;17.00;99.90
20398;DHT22;10358;49.590;11.030;2023-07-29T02:00:23;17.00;99.90
20398;DHT22;10358;49.590;11.030;2023-07-29T02:02:49;16.90;99.90
20398;DHT22;10358;49.590;11.030;2023-07-29T02:05:14;16.90;99.90
20398;DHT22;10358;49.590;11.030;2023-07-29T02:07:40;16.90;99.90
20398;DHT22;10358;49.590;11.030;2023-07-29T02:10:06;16.90;99.90
20398;DHT22;10358;49.590;11.030;2023-07-29T02:12:31;16.80;99.90
20398;DHT22;10358;49.590;11.030;2023-07-29T02:14:57;16.80;99.90
20398;DHT22;10358;49.590;11.030;2023-07-29T02:17:23;16.80;99.90
20398;DHT22;10358;49.590;11.030;2023-07-29T02:19:48;16.80;99.90
20398;DHT22;10358;49.590;11.030;2023-07-29T02:22:15;16.70;99.90
20398;DHT22;10358;49.590;11.030;2023-07-29T02:24:41;16.70;99.90
20398;DHT22;10358;49.590;11.030;2023-07-29T02:27:06;16.70;99.90
20398;DHT22;10358;49.590;11.030;2023-07-29T02:29:32;16.70;99.90
20398;DHT22;10358;49.590;11.030;2023-07-29T02:31:59;16.70;99.90
20398;DHT22;10358;49.590;11.030;2023-07-29T02:34:24;16.60;99.90
20398;DHT22;10358;49.590;11.030;2023-07-29T02:36:50;16.60;99.90
20398;DHT22;10358;49.590;11.030;2023-07-29T02:39:16;16.50;99.90
20398;DHT22;10358;49.590;11.030;2023-07-29T02:41:41;16.50;99.90
20398;DHT22;10358;49.590;11.030;2023-07-29T02:44:07;16.50;99.90
20398;DHT22;10358;49.590;11.030;2023-07-29T02:46:32;16.50;99.90
20398;DHT22;10358;49.590;11.030;2023-07-29T02:48:58;16.50;99.90
20398;DHT22;10358;49.590;11.030;2023-07-29T02:51:23;16.50;99.90
20398;DHT22;10358;49.590;11.030;2023-07-29T02:53:49;16.40;99.90
20398;DHT22;10358;49.590;11.030;2023-07-29T02:56:14;16.40;99.90
20398;DHT22;10358;49.590;11.030;2023-07-29T02:58:40;16.40;99.90
20398;DHT22;10358;49.590;11.030;2023-07-29T03:01:06;16.30;99.90
20398;DHT22;10358;49.590;11.030;2023-07-29T03:03:32;16.40;99.90
20398;DHT22;10358;49.590;11.030;2023-07-29T03:06:02;16.40;99.90
20398;DHT22;10358;49.590;11.030;2023-07-29T03:08:28;16.40;99.90
20398;DHT22;10358;49.590;11.030;2023-07-29T03:10:54;16.40;99.90
20398;DHT22;10358;49.590;11.030;2023-07-29T03:13:20;16.30;99.90
20398;DHT22;10358;49.590;11.030;2023-07-29T03:15:45;16.30;99.90
20398;DHT22;10358;49.590;11.030;2023-07-29T03:18:11;16.30;99.90
20398;DHT22;10358;49.590;11.030;2023-07-29T03:20:37;16.20;99.90
20398;DHT22;10358;49.590;11.030;2023-07-29T03:23:02;16.10;99.90
20398;DHT22;10358;49.590;11.030;2023-07-29T03:25:28;16.10;99.90
20398;DHT22;10358;49.590;11.030;2023-07-29T03:27:54;16.10;99.90
20398;DHT22;10358;49.590;11.030;2023-07-29T03:30:21;16.10;99.90
20398;DHT22;10358;49.590;11.030;2023-07-29T03:32:47;16.10;99.90
20398;DHT22;10358;49.590;11.030;2023-07-29T03:35:13;16.10;99.90
20398;DHT22;10358;49.590;11.030;2023-07-29T03:37:39;16.10;99.90
20398;DHT22;10358;49.590;11.030;2023-07-29T03:40:05;16.20;99.90
20398;DHT22;10358;49.590;11.030;2023-07-29T03:42:31;16.20;99.90
20398;DHT22;10358;49.590;11.030;2023-07-29T03:44:57;16.20;99.90
20398;DHT22;10358;49.590;11.030;2023-07-29T03:47:22;16.20;99.90
20398;DHT22;10358;49.590;11.030;2023-07-29T03:49:48;16.20;99.90
20398;DHT22;10358;49.590;11.030;2023-07-29T03:52:13;16.20;99.90
20398;DHT22;10358;49.590;11.030;2023-07-29T03:54:39;16.20;99.90
20398;DHT22;10358;49.590;11.030;2023-07-29T03:57:05;16.30;99.90
20398;DHT22;10358;49.590;11.030;2023-07-29T03:59:30;16.30;99.90
20398;DHT22;10358;49.590;11.030;2023-07-29T04:01:56;16.30;99.90
20398;DHT22;10358;49.590;11.030;2023-07-29T04:04:21;16.30;99.90
20398;DHT22;10358;49.590;11.030;2023-07-29T04:06:47;16.40;99.90
20398;DHT22;10358;49.590;11.030;2023-07-29T04:09:12;16.50;99.90
20398;DHT22;10358;49.590;11.030;2023-07-29T04:11:38;16.50;99.90
20398;DHT22;10358;49.590;11.030;2023-07-29T04:14:04;16.60;99.90
20398;DHT22;10358;49.590;11.030;2023-07-29T04:16:29;16.60;99.90
20398;DHT22;10358;49.590;11.030;2023-07-29T04:18:55;16.60;99.90
20398;DHT22;10358;49.590;11.030;2023-07-29T04:21:20;16.70;99.90
20398;DHT22;10358;49.590;11.030;2023-07-29T04:23:46;16.70;99.90
20398;DHT22;10358;49.590;11.030;2023-07-29T04:26:11;16.80;99.90
20398;DHT22;10358;49.590;11.030;2023-07-29T04:28:37;16.80;99.90
20398;DHT22;10358;49.590;11.030;2023-07-29T04:31:02;16.90;99.90
20398;DHT22;10358;49.590;11.030;2023-07-29T04:33:30;17.00;99.90
20398;DHT22;10358;49.590;11.030;2023-07-29T04:35:56;17.00;99.90
20398;DHT22;10358;49.590;11.030;2023-07-29T04:38:22;17.20;99.90
20398;DHT22;10358;49.590;11.030;2023-07-29T04:40:49;17.20;99.90
20398;DHT22;10358;49.590;11.030;2023-07-29T04:43:14;17.40;99.90
20398;DHT22;10358;49.590;11.030;2023-07-29T04:45:43;17.50;99.90
20398;DHT22;10358;49.590;11.030;2023-07-29T04:48:09;17.60;99.90
20398;DHT22;10358;49.590;11.030;2023-07-29T04:50:34;17.60;99.90
20398;DHT22;10358;49.590;11.030;2023-07-29T04:53:00;17.70;99.90
20398;DHT22;10358;49.590;11.030;2023-07-29T04:55:25;17.80;99.90
20398;DHT22;10358;49.590;11.030;2023-07-29T04:57:51;17.80;99.90
20398;DHT22;10358;49.590;11.030;2023-07-29T05:00:17;17.90;99.90
20398;DHT22;10358;49.590;11.030;2023-07-29T05:02:43;17.90;99.90
20398;DHT22;10358;49.590;11.030;2023-07-29T05:05:08;18.00;99.90
20398;DHT22;10358;49.590;11.030;2023-07-29T05:07:34;18.00;99.90
20398;DHT22;10358;49.590;11.030;2023-07-29T05:10:00;18.00;99.90
20398;DHT22;10358;49.590;11.030;2023-07-29T05:12:25;18.00;99.90
20398;DHT22;10358;49.590;11.030;2023-07-29T05:14:51;18.00;99.90
20398;DHT22;10358;49.590;11.030;2023-07-29T05:17:16;18.10;99.90
20398;DHT22;10358;49.590;11.030;2023-07-29T05:19:42;18.10;99.90
20398;DHT22;10358;49.590;11.030;2023-07-29T05:22:07;18.10;99.90
20398;DHT22;10358;49.590;11.030;2023-07-29T05:24:33;18.20;99.90
20398;DHT22;10358;49.590;11.030;2023-07-29T05:26:59;18.10;99.90
20398;DHT22;10358;49.590;11.030;2023-07-29T05:29:24;18.20;99.90
20398;DHT22;10358;49.590;11.030;2023-07-29T05:31:50;18.10;99.90
20398;DHT22;10358;49.590;11.030;2023-07-29T05:34:15;18.20;99.90
20398;DHT22;10358;49.590;11.030;2023-07-29T05:36:41;18.20;99.90
20398;DHT22;10358;49.590;11.030;2023-07-29T05:39:06;18.20;99.90
20398;DHT22;10358;49.590;11.030;2023-07-29T05:41:32;18.30;99.90
20398;DHT22;10358;49.590;11.030;2023-07-29T05:43:58;18.40;99.90
20398;DHT22;10358;49.590;11.030;2023-07-29T05:46:23;18.40;99.90
20398;DHT22;10358;49.590;11.030;2023-07-29T05:48:49;18.50;99.90
20398;DHT22;10358;49.590;11.030;2023-07-29T05:51:14;18.60;99.90
20398;DHT22;10358;49.590;11.030;2023-07-29T05:53:40;18.60;99.90
20398;DHT22;10358;49.590;11.030;2023-07-29T05:56:05;18.80;99.90
20398;DHT22;10358;49.590;11.030;2023-07-29T05:58:31;18.90;99.90
20398;DHT22;10358;49.590;11.030;2023-07-29T06:00:57;18.90;99.90
20398;DHT22;10358;49.590;11.030;2023-07-29T06:03:23;19.00;99.90
20398;DHT22;10358;49.590;11.030;2023-07-29T06:05:49;19.00;99.90
20398;DHT22;10358;49.590;11.030;2023-07-29T06:08:16;19.10;99.90
20398;DHT22;10358;49.590;11.030;2023-07-29T06:10:42;19.00;99.90
20398;DHT22;10358;49.590;11.030;2023-07-29T06:13:07;19.00;99.90
20398;DHT22;10358;49.590;11.030;2023-07-29T06:15:33;19.00;99.90
20398;DHT22;10358;49.590;11.030;2023-07-29T06:17:59;18.90;99.90
20398;DHT22;10358;49.590;11.030;2023-07-29T06:20:24;18.90;99.90
20398;DHT22;10358;49.590;11.030;2023-07-29T06:22:50;18.80;99.90
20398;DHT22;10358;49.590;11.030;2023-07-29T06:25:15;18.80;99.90
20398;DHT22;10358;49.590;11.030;2023-07-29T06:27:41;18.80;99.90
20398;DHT22;10358;49.590;11.030;2023-07-29T06:30:07;18.80;99.90
20398;DHT22;10358;49.590;11.030;2023-07-29T06:32:33;18.80;99.90
20398;DHT22;10358;49.590;11.030;2023-07-29T06:34:59;18.80;99.90
20398;DHT22;10358;49.590;11.030;2023-07-29T06:37:24;18.90;99.90
20398;DHT22;10358;49.590;11.030;2023-07-29T06:39:50;18.90;99.90
20398;DHT22;10358;49.590;11.030;2023-07-29T06:42:16;18.90;99.90
20398;DHT22;10358;49.590;11.030;2023-07-29T06:44:41;18.90;99.90
20398;DHT22;10358;49.590;11.030;2023-07-29T06:47:07;18.90;99.90
20398;DHT22;10358;49.590;11.030;2023-07-29T06:49:32;18.90;99.90
20398;DHT22;10358;49.590;11.030;2023-07-29T06:51:58;18.80;99.90
20398;DHT22;10358;49.590;11.030;2023-07-29T06:54:26;18.70;99.90
20398;DHT22;10358;49.590;11.030;2023-07-29T06:56:52;18.60;99.90
20398;DHT22;10358;49.590;11.030;2023-07-29T06:59:18;18.60;99.90
20398;DHT22;10358;49.590;11.030;2023-07-29T07:01:44;18.50;99.90
20398;DHT22;10358;49.590;11.030;2023-07-29T07:04:09;18.40;99.90
20398;DHT22;10358;49.590;11.030;2023-07-29T07:06:35;18.40;99.90
20398;DHT22;10358;49.590;11.030;2023-07-29T07:09:00;18.40;99.90
20398;DHT22;10358;49.590;11.030;2023-07-29T07:11:26;18.40;99.90
20398;DHT22;10358;49.590;11.030;2023-07-29T07:13:51;18.40;99.90
20398;DHT22;10358;49.590;11.030;2023-07-29T07:16:17;18.40;99.90
20398;DHT22;10358;49.590;11.030;2023-07-29T07:18:43;18.40;99.90
20398;DHT22;10358;49.590;11.030;2023-07-29T07:21:08;18.40;99.90
20398;DHT22;10358;49.590;11.030;2023-07-29T07:23:34;18.40;99.90
20398;DHT22;10358;49.590;11.030;2023-07-29T07:25:59;18.50;99.90
20398;DHT22;10358;49.590;11.030;2023-07-29T07:28:25;18.50;99.90
20398;DHT22;10358;49.590;11.030;2023-07-29T07:30:51;18.50;99.90
20398;DHT22;10358;49.590;11.030;2023-07-29T07:33:16;18.50;99.90
20398;DHT22;10358;49.590;11.030;2023-07-29T07:35:42;18.60;99.90
20398;DHT22;10358;49.590;11.030;2023-07-29T07:38:08;18.70;99.90
20398;DHT22;10358;49.590;11.030;2023-07-29T07:40:35;18.70;99.90
20398;DHT22;10358;49.590;11.030;2023-07-29T07:43:02;18.90;99.90
20398;DHT22;10358;49.590;11.030;2023-07-29T07:45:27;18.90;99.90
20398;DHT22;10358;49.590;11.030;2023-07-29T07:47:53;19.00;99.90
20398;DHT22;10358;49.590;11.030;2023-07-29T07:50:19;19.10;99.90
20398;DHT22;10358;49.590;11.030;2023-07-29T07:52:45;19.20;99.90
20398;DHT22;10358;49.590;11.030;2023-07-29T07:55:10;19.20;99.90
20398;DHT22;10358;49.590;11.030;2023-07-29T07:57:36;19.30;99.90
20398;DHT22;10358;49.590;11.030;2023-07-29T08:00:02;19.30;99.90
20398;DHT22;10358;49.590;11.030;2023-07-29T08:02:29;19.30;99.90
20398;DHT22;10358;49.590;11.030;2023-07-29T08:04:55;19.30;99.90
20398;DHT22;10358;49.590;11.030;2023-07-29T08:07:20;19.30;99.90
20398;DHT22;10358;49.590;11.030;2023-07-29T08:09:46;19.30;99.90
20398;DHT22;10358;49.590;11.030;2023-07-29T08:12:12;19.30;99.90
20398;DHT22;10358;49.590;11.030;2023-07-29T08:14:37;19.30;99.90
20398;DHT22;10358;49.590;11.030;2023-07-29T08:17:03;19.40;99.90
20398;DHT22;10358;49.590;11.030;2023-07-29T08:19:28;19.50;99.90
20398;DHT22;10358;49.590;11.030;2023-07-29T08:21:54;19.60;99.90
20398;DHT22;10358;49.590;11.030;2023-07-29T08:24:19;19.60;99.90
20398;DHT22;10358;49.590;11.030;2023-07-29T08:26:45;19.70;99.90
20398;DHT22;10358;49.590;11.030;2023-07-29T08:29:11;19.60;99.90
20398;DHT22;10358;49.590;11.030;2023-07-29T08:31:37;19.70;99.90
20398;DHT22;10358;49.590;11.030;2023-07-29T08:34:03;19.70;99.90
20398;DHT22;10358;49.590;11.030;2023-07-29T08:36:28;19.60;99.90
20398;DHT22;10358;49.590;11.030;2023-07-29T08:38:54;19.70;99.90
20398;DHT22;10358;49.590;11.030;2023-07-29T08:41:25;19.70;99.90
20398;DHT22;10358;49.590;11.030;2023-07-29T08:44:06;19.70;99.90
20398;DHT22;10358;49.590;11.030;2023-07-29T08:46:33;19.70;99.90
20398;DHT22;10358;49.590;11.030;2023-07-29T08:48:59;19.70;99.90
20398;DHT22;10358;49.590;11.030;2023-07-29T08:51:27;19.70;99.90
20398;DHT22;10358;49.590;11.030;2023-07-29T08:53:54;19.70;99.90
20398;DHT22;10358;49.590;11.030;2023-07-29T08:56:21;19.70;99.90
20398;DHT22;10358;49.590;11.030;2023-07-29T08:58:47;19.70;99.90
20398;DHT22;10358;49.590;11.030;2023-07-29T09:01:12;19.70;99.90
20398;DHT22;10358;49.590;11.030;2023-07-29T09:03:40;19.70;99.90
20398;DHT22;10358;49.590;11.030;2023-07-29T09:06:07;19.70;99.90
20398;DHT22;10358;49.590;11.030;2023-07-29T09:08:34;19.80;99.90
20398;DHT22;10358;49.590;11.030;2023-07-29T09:11:00;19.80;99.90
20398;DHT22;10358;49.590;11.030;2023-07-29T09:13:25;19.90;99.90
20398;DHT22;10358;49.590;11.030;2023-07-29T09:15:55;20.00;99.90
20398;DHT22;10358;49.590;11.030;2023-07-29T09:18:27;20.00;99.90
20398;DHT22;10358;49.590;11.030;2023-07-29T09:20:53;20.00;99.90
20398;DHT22;10358;49.590;11.030;2023-07-29T09:23:19;20.00;99.90
20398;DHT22;10358;49.590;11.030;2023-07-29T09:25:48;19.90;99.90
20398;DHT22;10358;49.590;11.030;2023-07-29T09:28:15;19.90;99.90
20398;DHT22;10358;49.590;11.030;2023-07-29T09:30:45;19.80;99.90
20398;DHT22;10358;49.590;11.030;2023-07-29T09:33:11;19.80;99.90
20398;DHT22;10358;49.590;11.030;2023-07-29T09:38:59;19.60;99.90
20398;DHT22;10358;49.590;11.030;2023-07-29T09:41:26;19.60;99.90
20398;DHT22;10358;49.590;11.030;2023-07-29T09:44:02;19.60;99.90
20398;DHT22;10358;49.590;11.030;2023-07-29T09:46:35;19.60;99.90
20398;DHT22;10358;49.590;11.030;2023-07-29T09:49:03;19.80;99.90
20398;DHT22;10358;49.590;11.030;2023-07-29T09:51:29;20.00;99.90
20398;DHT22;10358;49.590;11.030;2023-07-29T09:53:55;20.20;99.90
20398;DHT22;10358;49.590;11.030;2023-07-29T09:56:25;20.40;99.90
20398;DHT22;10358;49.590;11.030;2023-07-29T09:58:52;20.60;99.90
20398;DHT22;10358;49.590;11.030;2023-07-29T10:01:17;20.70;99.90
20398;DHT22;10358;49.590;11.030;2023-07-29T10:03:44;20.80;99.90
20398;DHT22;10358;49.590;11.030;2023-07-29T10:06:10;20.90;99.90
20398;DHT22;10358;49.590;11.030;2023-07-29T10:08:37;21.00;99.90
20398;DHT22;10358;49.590;11.030;2023-07-29T10:11:07;21.20;99.90
20398;DHT22;10358;49.590;11.030;2023-07-29T10:13:33;21.40;99.90
20398;DHT22;10358;49.590;11.030;2023-07-29T10:15:59;21.70;99.90
20398;DHT22;10358;49.590;11.030;2023-07-29T10:18:28;22.10;99.90
20398;DHT22;10358;49.590;11.030;2023-07-29T10:20:57;22.40;99.90
20398;DHT22;10358;49.590;11.030;2023-07-29T10:23:25;22.80;99.90
20398;DHT22;10358;49.590;11.030;2023-07-29T10:26:05;23.10;99.90
20398;DHT22;10358;49.590;11.030;2023-07-29T10:28:32;23.40;99.90
20398;DHT22;10358;49.590;11.030;2023-07-29T10:30:59;23.40;99.90
20398;DHT22;10358;49.590;11.030;2023-07-29T10:33:25;23.30;99.90
20398;DHT22;10358;49.590;11.030;2023-07-29T10:35:52;23.20;99.90
20398;DHT22;10358;49.590;11.030;2023-07-29T10:38:20;23.00;99.90
20398;DHT22;10358;49.590;11.030;2023-07-29T10:40:51;22.80;99.90
20398;DHT22;10358;49.590;11.030;2023-07-29T10:43:32;22.80;99.90
20398;DHT22;10358;49.590;11.030;2023-07-29T10:45:59;22.80;99.90
20398;DHT22;10358;49.590;11.030;2023-07-29T10:48:40;22.90;99.90
20398;DHT22;10358;49.590;11.030;2023-07-29T10:53:48;23.00;99.90
20398;DHT22;10358;49.590;11.030;2023-07-29T10:56:28;23.00;99.90
20398;DHT22;10358;49.590;11.030;2023-07-29T11:01:42;22.80;99.90
20398;DHT22;10358;49.590;11.030;2023-07-29T11:09:57;23.10;99.90
20398;DHT22;10358;49.590;11.030;2023-07-29T11:12:45;23.40;99.90
20398;DHT22;10358;49.590;11.030;2023-07-29T11:15:12;23.40;99.90
20398;DHT22;10358;49.590;11.030;2023-07-29T11:17:46;23.30;99.90
20398;DHT22;10358;49.590;11.030;2023-07-29T11:20:13;23.20;99.90
20398;DHT22;10358;49.590;11.030;2023-07-29T11:22:39;23.10;99.90
20398;DHT22;10358;49.590;11.030;2023-07-29T11:25:07;23.00;99.90
20398;DHT22;10358;49.590;11.030;2023-07-29T11:27:33;22.80;99.90
20398;DHT22;10358;49.590;11.030;2023-07-29T11:30:00;22.60;99.90
20398;DHT22;10358;49.590;11.030;2023-07-29T11:32:25;22.40;99.90
20398;DHT22;10358;49.590;11.030;2023-07-29T11:34:51;22.20;99.90
20398;DHT22;10358;49.590;11.030;2023-07-29T11:37:17;22.10;99.90
20398;DHT22;10358;49.590;11.030;2023-07-29T11:39:44;22.00;99.90
20398;DHT22;10358;49.590;11.030;2023-07-29T11:42:14;21.80;99.90
20398;DHT22;10358;49.590;11.030;2023-07-29T11:44:40;21.80;99.90
20398;DHT22;10358;49.590;11.030;2023-07-29T11:47:09;21.80;99.90
20398;DHT22;10358;49.590;11.030;2023-07-29T11:49:35;21.80;99.90
20398;DHT22;10358;49.590;11.030;2023-07-29T11:52:03;21.70;99.90
20398;DHT22;10358;49.590;11.030;2023-07-29T11:54:34;21.70;99.90
20398;DHT22;10358;49.590;11.030;2023-07-29T11:57:00;21.70;99.90
20398;DHT22;10358;49.590;11.030;2023-07-29T11:59:27;21.70;99.90
20398;DHT22;10358;49.590;11.030;2023-07-29T12:01:56;21.90;99.90
20398;DHT22;10358;49.590;11.030;2023-07-29T12:04:21;22.00;99.90
20398;DHT22;10358;49.590;11.030;2023-07-29T12:06:47;22.20;99.90
20398;DHT22;10358;49.590;11.030;2023-07-29T12:09:13;22.50;99.90
20398;DHT22;10358;49.590;11.030;2023-07-29T12:11:39;22.70;99.90
20398;DHT22;10358;49.590;11.030;2023-07-29T12:14:07;22.80;99.90
20398;DHT22;10358;49.590;11.030;2023-07-29T12:16:43;22.80;99.90
20398;DHT22;10358;49.590;11.030;2023-07-29T12:19:08;22.80;99.90
20398;DHT22;10358;49.590;11.030;2023-07-29T12:21:37;22.80;99.90
20398;DHT22;10358;49.590;11.030;2023-07-29T12:24:03;23.00;99.90
20398;DHT22;10358;49.590;11.030;2023-07-29T12:26:29;23.10;99.90
20398;DHT22;10358;49.590;11.030;2023-07-29T12:28:55;23.30;99.90
20398;DHT22;10358;49.590;11.030;2023-07-29T12:31:22;23.60;99.90
20398;DHT22;10358;49.590;11.030;2023-07-29T12:33:56;23.80;99.90
20398;DHT22;10358;49.590;11.030;2023-07-29T12:36:21;24.10;99.90
20398;DHT22;10358;49.590;11.030;2023-07-29T12:38:47;24.20;99.90
20398;DHT22;10358;49.590;11.030;2023-07-29T12:41:12;24.40;99.90
20398;DHT22;10358;49.590;11.030;2023-07-29T12:43:38;24.50;99.90
20398;DHT22;10358;49.590;11.030;2023-07-29T12:46:04;24.60;99.90
20398;DHT22;10358;49.590;11.030;2023-07-29T12:48:29;24.70;99.90
20398;DHT22;10358;49.590;11.030;2023-07-29T12:50:55;24.90;99.90
20398;DHT22;10358;49.590;11.030;2023-07-29T12:53:20;24.90;99.90
20398;DHT22;10358;49.590;11.030;2023-07-29T12:55:46;25.00;99.90
20398;DHT22;10358;49.590;11.030;2023-07-29T12:58:11;25.30;99.90
20398;DHT22;10358;49.590;11.030;2023-07-29T13:00:37;25.60;99.90
20398;DHT22;10358;49.590;11.030;2023-07-29T13:03:03;25.80;99.90
20398;DHT22;10358;49.590;11.030;2023-07-29T13:05:31;26.00;99.90
20398;DHT22;10358;49.590;11.030;2023-07-29T13:07:56;26.10;99.90
20398;DHT22;10358;49.590;11.030;2023-07-29T13:10:22;26.20;99.90
20398;DHT22;10358;49.590;11.030;2023-07-29T13:12:47;26.20;99.90
20398;DHT22;10358;49.590;11.030;2023-07-29T13:15:14;26.30;99.90
20398;DHT22;10358;49.590;11.030;2023-07-29T13:17:39;26.20;99.90
20398;DHT22;10358;49.590;11.030;2023-07-29T13:20:06;25.90;99.90
20398;DHT22;10358;49.590;11.030;2023-07-29T13:22:31;25.70;99.90
20398;DHT22;10358;49.590;11.030;2023-07-29T13:24:57;25.50;99.90
20398;DHT22;10358;49.590;11.030;2023-07-29T13:27:22;25.30;99.90
20398;DHT22;10358;49.590;11.030;2023-07-29T13:29:49;25.40;99.90
20398;DHT22;10358;49.590;11.030;2023-07-29T13:32:14;25.60;99.90
20398;DHT22;10358;49.590;11.030;2023-07-29T13:34:40;25.90;99.90
20398;DHT22;10358;49.590;11.030;2023-07-29T13:37:06;26.30;99.90
20398;DHT22;10358;49.590;11.030;2023-07-29T13:39:31;26.70;99.90
20398;DHT22;10358;49.590;11.030;2023-07-29T13:41:57;27.10;99.90
20398;DHT22;10358;49.590;11.030;2023-07-29T13:44:22;27.40;99.90
20398;DHT22;10358;49.590;11.030;2023-07-29T13:46:48;27.60;99.90
20398;DHT22;10358;49.590;11.030;2023-07-29T13:49:13;27.70;99.90
20398;DHT22;10358;49.590;11.030;2023-07-29T13:51:39;27.90;99.90
20398;DHT22;10358;49.590;11.030;2023-07-29T13:54:04;27.90;99.90
20398;DHT22;10358;49.590;11.030;2023-07-29T13:56:30;28.00;99.90
20398;DHT22;10358;49.590;11.030;2023-07-29T13:58:56;27.90;99.90
20398;DHT22;10358;49.590;11.030;2023-07-29T14:01:21;27.70;99.90
20398;DHT22;10358;49.590;11.030;2023-07-29T14:03:47;27.60;99.90
20398;DHT22;10358;49.590;11.030;2023-07-29T14:06:12;27.90;99.90
20398;DHT22;10358;49.590;11.030;2023-07-29T14:08:38;28.10;99.90
20398;DHT22;10358;49.590;11.030;2023-07-29T14:11:06;28.10;99.90
20398;DHT22;10358;49.590;11.030;2023-07-29T14:13:31;28.00;99.90
20398;DHT22;10358;49.590;11.030;2023-07-29T14:15:57;27.80;99.90
20398;DHT22;10358;49.590;11.030;2023-07-29T14:18:22;27.60;99.90
20398;DHT22;10358;49.590;11.030;2023-07-29T14:20:48;27.80;99.90
20398;DHT22;10358;49.590;11.030;2023-07-29T14:23:14;28.00;99.90
20398;DHT22;10358;49.590;11.030;2023-07-29T14:25:40;28.30;99.90
20398;DHT22;10358;49.590;11.030;2023-07-29T14:28:05;28.60;99.90
20398;DHT22;10358;49.590;11.030;2023-07-29T14:30:31;28.90;99.90
20398;DHT22;10358;49.590;11.030;2023-07-29T14:32:56;29.20;99.90
20398;DHT22;10358;49.590;11.030;2023-07-29T14:35:22;29.50;99.90
20398;DHT22;10358;49.590;11.030;2023-07-29T14:37:48;29.70;99.90
20398;DHT22;10358;49.590;11.030;2023-07-29T14:40:13;29.60;99.90
20398;DHT22;10358;49.590;11.030;2023-07-29T14:42:39;29.20;99.90
20398;DHT22;10358;49.590;11.030;2023-07-29T14:45:05;29.20;99.90
20398;DHT22;10358;49.590;11.030;2023-07-29T14:47:30;29.50;99.90
20398;DHT22;10358;49.590;11.030;2023-07-29T14:50:02;30.10;98.50
20398;DHT22;10358;49.590;11.030;2023-07-29T14:52:27;30.40;95.60
20398;DHT22;10358;49.590;11.030;2023-07-29T14:54:53;30.50;94.30
20398;DHT22;10358;49.590;11.030;2023-07-29T14:57:18;30.70;93.80
20398;DHT22;10358;49.590;11.030;2023-07-29T14:59:44;30.80;93.90
20398;DHT22;10358;49.590;11.030;2023-07-29T15:02:09;30.70;92.80
20398;DHT22;10358;49.590;11.030;2023-07-29T15:04:35;30.10;93.10
20398;DHT22;10358;49.590;11.030;2023-07-29T15:07:02;29.70;93.10
20398;DHT22;10358;49.590;11.030;2023-07-29T15:09:28;29.70;93.40
20398;DHT22;10358;49.590;11.030;2023-07-29T15:11:53;30.00;93.00
20398;DHT22;10358;49.590;11.030;2023-07-29T15:14:19;30.50;91.70
20398;DHT22;10358;49.590;11.030;2023-07-29T15:16:44;30.70;90.70
20398;DHT22;10358;49.590;11.030;2023-07-29T15:19:10;30.90;89.30
20398;DHT22;10358;49.590;11.030;2023-07-29T15:21:35;30.70;87.30
20398;DHT22;10358;49.590;11.030;2023-07-29T15:24:01;30.70;84.60
20398;DHT22;10358;49.590;11.030;2023-07-29T15:26:27;30.40;85.80
20398;DHT22;10358;49.590;11.030;2023-07-29T15:28:53;30.60;84.90
20398;DHT22;10358;49.590;11.030;2023-07-29T15:31:19;31.00;82.50